Time;durP1;ratioP1;P1;durP2;ratioP2;P2;SDS_P1;SDS_P2;PMS_P1;PMS_P2;Temp;Humidity;BMP_temperature;BMP_pressure;BME280_temperature;BME280_humidity;BME280_pressure;Samples;Min_cycle;Max_cycle;Signal;HPM_P1;HPM_P2
2022/10/04 00:00:23;;;;;;;11.40;5.53;;;12.40;99.90;;;;;;5104484;28;20547;-75
2022/10/04 00:02:48;;;;;;;16.85;5.38;;;12.30;99.90;;;;;;5094480;28;20123;-75
2022/10/04 00:05:19;;;;;;;12.98;5.70;;;12.30;99.90;;;;;;5091745;28;20461;-75
2022/10/04 00:07:50;;;;;;;13.20;5.00;;;12.30;99.90;;;;;;5091540;28;20036;-75
2022/10/04 00:10:19;;;;;;;13.50;5.60;;;12.30;99.90;;;;;;5091510;28;20039;-75
2022/10/04 00:13:14;;;;;;;12.43;5.43;;;12.30;99.90;;;;;;5090890;28;20051;-75
2022/10/04 00:15:40;;;;;;;10.40;5.32;;;12.20;99.90;;;;;;5091567;28;20457;-75
2022/10/04 00:18:28;;;;;;;19.13;6.55;;;12.20;99.90;;;;;;5091286;28;20075;-75
2022/10/04 00:20:57;;;;;;;11.40;4.65;;;12.20;99.90;;;;;;5073777;28;20099;-76
2022/10/04 00:23:22;;;;;;;10.80;5.43;;;12.20;99.90;;;;;;5090992;28;20032;-75
2022/10/04 00:25:59;;;;;;;11.60;5.13;;;12.20;99.90;;;;;;5090687;28;20074;-75
2022/10/04 00:28:24;;;;;;;12.25;4.88;;;12.20;99.90;;;;;;5072346;28;20040;-76
2022/10/04 00:31:10;;;;;;;13.07;5.47;;;12.20;99.90;;;;;;5091567;28;20065;-76
2022/10/04 00:33:41;;;;;;;15.60;5.38;;;12.20;99.90;;;;;;5090977;28;20036;-76
2022/10/04 00:36:24;;;;;;;10.23;4.65;;;12.20;99.90;;;;;;5090695;28;20047;-75
2022/10/04 00:39:08;;;;;;;9.13;5.18;;;12.20;99.90;;;;;;5074078;28;20054;-76
2022/10/04 00:41:37;;;;;;;9.75;4.85;;;12.10;99.90;;;;;;5090667;28;20044;-76
2022/10/04 00:44:05;;;;;;;13.05;5.20;;;12.10;99.90;;;;;;5090891;28;20054;-76
2022/10/04 00:46:32;;;;;;;17.63;5.55;;;12.10;99.90;;;;;;5090971;28;20048;-76
2022/10/04 00:49:04;;;;;;;11.38;5.32;;;12.10;99.90;;;;;;5090664;28;20036;-75
2022/10/04 00:51:32;;;;;;;10.98;5.20;;;12.10;99.90;;;;;;5090383;28;20046;-75
2022/10/04 00:54:11;;;;;;;10.77;5.40;;;12.10;99.90;;;;;;5090484;28;20036;-75
2022/10/04 00:56:56;;;;;;;11.80;5.45;;;12.10;99.90;;;;;;5090992;28;20089;-75
2022/10/04 00:59:36;;;;;;;15.52;5.75;;;12.00;99.90;;;;;;5090647;28;20051;-75
2022/10/04 01:02:17;;;;;;;13.02;5.68;;;12.00;99.90;;;;;;5090350;28;20512;-76
2022/10/04 01:04:47;;;;;;;13.43;6.20;;;11.90;99.90;;;;;;5090520;28;20036;-76
2022/10/04 01:07:16;;;;;;;14.32;6.15;;;11.90;99.90;;;;;;5090497;28;20075;-75
2022/10/04 01:09:54;;;;;;;9.15;5.78;;;11.90;99.90;;;;;;5090586;28;20048;-75
2022/10/04 01:12:39;;;;;;;13.63;5.97;;;11.80;99.90;;;;;;5090211;28;20048;-75
2022/10/04 01:15:15;;;;;;;12.43;5.65;;;11.80;99.90;;;;;;5090665;28;20111;-75
2022/10/04 01:17:40;;;;;;;12.10;6.20;;;11.80;99.90;;;;;;5073871;28;20028;-75
2022/10/04 01:20:34;;;;;;;15.52;6.95;;;11.80;99.90;;;;;;5090421;28;20166;-76
2022/10/04 01:23:02;;;;;;;14.63;6.30;;;11.80;99.90;;;;;;5090244;28;20043;-75
2022/10/04 01:25:45;;;;;;;17.05;7.00;;;11.70;99.90;;;;;;5090349;28;20047;-76
2022/10/04 01:28:11;;;;;;;14.70;7.20;;;11.70;99.90;;;;;;5090262;28;20048;-76
2022/10/04 01:30:37;;;;;;;11.77;6.70;;;11.70;99.90;;;;;;5090260;28;20408;-76
2022/10/04 01:33:05;;;;;;;12.98;7.13;;;11.70;99.90;;;;;;5090220;28;20043;-76
2022/10/04 01:35:34;;;;;;;14.27;7.40;;;11.70;99.90;;;;;;5090327;28;20040;-75
2022/10/04 01:38:01;;;;;;;13.52;6.82;;;11.80;99.90;;;;;;5090068;28;20040;-75
2022/10/04 01:40:27;;;;;;;12.93;6.85;;;11.70;99.90;;;;;;5092649;28;20069;-76
2022/10/04 01:43:00;;;;;;;14.05;7.13;;;11.70;99.90;;;;;;5094141;28;20044;-76
2022/10/04 01:45:42;;;;;;;14.70;7.05;;;11.70;99.90;;;;;;5094159;28;20540;-76
2022/10/04 01:48:14;;;;;;;12.95;7.13;;;11.70;99.90;;;;;;5094166;28;20089;-76
2022/10/04 01:50:50;;;;;;;17.80;8.05;;;11.70;99.90;;;;;;5094109;28;20067;-76
2022/10/04 01:53:21;;;;;;;13.43;7.38;;;11.70;99.90;;;;;;5093692;28;20038;-76
2022/10/04 01:55:50;;;;;;;12.93;7.85;;;11.70;99.90;;;;;;5094024;28;20493;-75
2022/10/04 01:58:32;;;;;;;13.10;8.00;;;11.70;99.90;;;;;;5093845;28;20114;-76
2022/10/04 02:01:05;;;;;;;14.60;7.90;;;11.70;99.90;;;;;;5093510;28;20104;-76
2022/10/04 02:03:34;;;;;;;14.20;7.97;;;11.70;99.90;;;;;;5093417;28;20551;-76
2022/10/04 02:06:04;;;;;;;16.08;8.32;;;11.70;99.90;;;;;;5076783;28;20036;-76
2022/10/04 02:08:34;;;;;;;15.23;8.82;;;11.70;99.90;;;;;;5093753;28;20065;-76
2022/10/04 02:11:04;;;;;;;12.80;7.90;;;11.60;99.90;;;;;;5093166;28;20040;-75
2022/10/04 02:13:37;;;;;;;16.08;8.93;;;11.70;99.90;;;;;;5093516;28;20044;-76
2022/10/04 02:16:08;;;;;;;12.23;8.02;;;11.60;99.90;;;;;;5093641;28;20116;-76
2022/10/04 02:18:38;;;;;;;19.23;8.50;;;11.60;99.90;;;;;;5093670;28;20040;-76
2022/10/04 02:21:05;;;;;;;15.68;8.20;;;11.50;99.90;;;;;;5093250;28;20040;-76
2022/10/04 02:23:32;;;;;;;16.55;8.48;;;11.50;99.90;;;;;;5093714;28;20392;-76
2022/10/04 02:25:57;;;;;;;17.05;8.52;;;11.50;99.90;;;;;;5093487;28;20032;-76
2022/10/04 02:28:24;;;;;;;18.73;8.85;;;11.40;99.90;;;;;;5093347;28;20201;-76
2022/10/04 02:33:42;;;;;;;13.75;8.25;;;11.40;99.90;;;;;;5093037;28;20048;-76
2022/10/04 02:36:09;;;;;;;15.77;8.27;;;11.40;99.90;;;;;;5093240;28;20122;-76
2022/10/04 02:38:44;;;;;;;11.82;7.40;;;11.40;99.90;;;;;;5078969;28;20051;-76
2022/10/04 02:41:36;;;;;;;18.45;8.25;;;11.30;99.90;;;;;;5111905;28;20039;-76
2022/10/04 02:44:17;;;;;;;14.48;7.50;;;11.30;99.90;;;;;;5086504;28;20074;-76
2022/10/04 02:47:08;;;;;;;12.57;7.63;;;11.30;99.90;;;;;;5092967;28;20054;-76
2022/10/04 02:49:37;;;;;;;14.70;7.40;;;11.20;99.90;;;;;;5092853;28;20044;-76
2022/10/04 02:52:02;;;;;;;11.55;7.45;;;11.20;99.90;;;;;;5092022;28;20427;-76
2022/10/04 02:54:41;;;;;;;14.65;7.85;;;11.20;99.90;;;;;;5092705;28;20032;-76
2022/10/04 02:57:16;;;;;;;16.83;7.90;;;11.20;99.90;;;;;;5092876;28;20063;-76
2022/10/04 02:59:42;;;;;;;15.98;8.07;;;11.20;99.90;;;;;;5092849;28;20040;-77
2022/10/04 03:02:26;;;;;;;13.27;7.63;;;11.10;99.90;;;;;;5092105;28;20036;-76
2022/10/04 03:04:55;;;;;;;13.85;7.28;;;11.10;99.90;;;;;;5091802;28;20047;-76
2022/10/04 03:07:21;;;;;;;13.32;8.25;;;11.10;99.90;;;;;;5074420;28;20036;-76
2022/10/04 03:09:47;;;;;;;14.40;7.18;;;11.10;99.90;;;;;;5092331;28;20048;-76
2022/10/04 03:12:14;;;;;;;18.13;7.72;;;11.10;99.90;;;;;;5092661;28;20048;-76
2022/10/04 03:14:39;;;;;;;16.80;7.95;;;11.10;99.90;;;;;;5092612;28;20503;-76
2022/10/04 03:17:06;;;;;;;12.85;7.35;;;11.10;99.90;;;;;;5092499;28;20032;-76
2022/10/04 03:19:34;;;;;;;20.27;8.05;;;11.00;99.90;;;;;;5092601;28;20036;-76
2022/10/04 03:22:10;;;;;;;16.45;7.80;;;11.00;99.90;;;;;;5091997;28;20505;-76
2022/10/04 03:24:45;;;;;;;13.68;7.65;;;11.00;99.90;;;;;;5092224;28;20044;-76
2022/10/04 03:27:32;;;;;;;12.90;8.02;;;11.00;99.90;;;;;;5092223;28;20058;-76
2022/10/04 03:30:00;;;;;;;12.95;7.78;;;11.00;99.90;;;;;;5091308;28;20067;-76
2022/10/04 03:32:29;;;;;;;12.35;7.07;;;11.00;99.90;;;;;;5074348;28;20057;-76
2022/10/04 03:34:59;;;;;;;12.95;7.70;;;10.90;99.90;;;;;;5092092;28;20512;-76
2022/10/04 03:37:26;;;;;;;14.57;7.93;;;10.90;99.90;;;;;;5092159;28;20032;-76
2022/10/04 03:39:53;;;;;;;12.40;7.32;;;10.80;99.90;;;;;;5091814;28;20130;-76
2022/10/04 03:42:28;;;;;;;17.25;8.10;;;10.90;99.90;;;;;;5090407;28;20093;-76
2022/10/04 03:45:01;;;;;;;15.02;8.10;;;10.80;99.90;;;;;;5091992;28;20044;-76
2022/10/04 03:47:31;;;;;;;14.15;8.38;;;10.80;99.90;;;;;;5092185;28;20048;-76
2022/10/04 03:50:01;;;;;;;14.88;7.68;;;10.80;99.90;;;;;;5091762;28;20047;-76
2022/10/04 03:52:31;;;;;;;15.40;7.93;;;10.70;99.90;;;;;;5091250;28;20032;-76
2022/10/04 03:55:01;;;;;;;15.00;7.90;;;10.80;99.90;;;;;;5091685;28;20040;-76
2022/10/04 03:57:28;;;;;;;19.92;8.55;;;10.70;99.90;;;;;;5074685;28;20048;-76
2022/10/04 03:59:54;;;;;;;16.17;8.32;;;10.70;99.90;;;;;;5091777;28;20040;-76
2022/10/04 04:02:38;;;;;;;15.27;7.95;;;10.70;99.90;;;;;;5091232;28;20417;-76
2022/10/04 04:05:08;;;;;;;14.88;8.20;;;10.70;99.90;;;;;;5091482;28;20497;-76
2022/10/04 04:07:46;;;;;;;15.93;8.95;;;10.70;99.90;;;;;;5091673;28;20036;-76
2022/10/04 04:10:23;;;;;;;12.45;7.85;;;10.70;99.90;;;;;;5091429;28;20060;-75
2022/10/04 04:13:16;;;;;;;14.27;8.48;;;10.70;99.90;;;;;;5091065;28;20050;-76
2022/10/04 04:15:44;;;;;;;17.60;8.82;;;10.70;99.90;;;;;;5091407;28;20044;-76
2022/10/04 04:18:24;;;;;;;14.43;8.85;;;10.60;99.90;;;;;;5074223;28;20043;-76
2022/10/04 04:20:53;;;;;;;15.98;8.85;;;10.60;99.90;;;;;;5091114;28;20521;-76
2022/10/04 04:23:24;;;;;;;16.80;9.20;;;10.60;99.90;;;;;;5090883;28;20493;-76
2022/10/04 04:25:53;;;;;;;19.23;8.27;;;10.60;99.90;;;;;;5091440;28;20082;-76
2022/10/04 04:28:23;;;;;;;17.88;9.40;;;10.50;99.90;;;;;;5091139;28;20067;-76
2022/10/04 04:30:52;;;;;;;14.40;8.35;;;10.60;99.90;;;;;;5090912;28;20039;-76
2022/10/04 04:33:31;;;;;;;19.60;9.48;;;10.50;99.90;;;;;;5091373;28;20473;-76
2022/10/04 04:36:05;;;;;;;15.57;9.07;;;10.50;99.90;;;;;;5090933;28;20039;-76
2022/10/04 04:38:32;;;;;;;15.93;9.23;;;10.50;99.90;;;;;;5091236;28;20055;-76
2022/10/04 04:41:08;;;;;;;15.52;8.77;;;10.50;99.90;;;;;;5090628;28;20044;-76
2022/10/04 04:43:34;;;;;;;13.60;9.10;;;10.50;99.90;;;;;;5090728;28;20127;-76
2022/10/04 04:46:00;;;;;;;16.23;9.48;;;10.50;99.90;;;;;;5091202;28;20130;-76
2022/10/04 04:48:26;;;;;;;18.58;9.77;;;10.50;99.90;;;;;;5090847;28;20429;-76
2022/10/04 04:50:56;;;;;;;17.25;9.00;;;10.50;99.90;;;;;;5090766;28;20070;-77
2022/10/04 04:53:31;;;;;;;16.02;9.02;;;10.50;99.90;;;;;;5088723;28;20238;-76
2022/10/04 04:56:00;;;;;;;16.45;10.45;;;10.50;99.90;;;;;;5090962;28;20043;-76
2022/10/04 04:58:37;;;;;;;15.07;9.40;;;10.50;99.90;;;;;;5090948;28;20378;-76
2022/10/04 05:01:27;;;;;;;13.90;9.30;;;10.40;99.90;;;;;;5090283;28;20082;-76
2022/10/04 05:04:11;;;;;;;19.33;9.52;;;10.40;99.90;;;;;;5090493;28;20043;-76
2022/10/04 05:06:41;;;;;;;14.90;9.00;;;10.40;99.90;;;;;;5090442;28;20131;-76
2022/10/04 05:09:33;;;;;;;21.25;9.90;;;10.40;99.90;;;;;;5090440;28;20111;-76
2022/10/04 05:12:14;;;;;;;14.10;9.70;;;10.40;99.90;;;;;;5090604;28;20036;-76
2022/10/04 05:14:46;;;;;;;17.88;9.70;;;10.30;99.90;;;;;;5093064;28;20040;-76
2022/10/04 05:17:21;;;;;;;18.05;10.82;;;10.30;99.90;;;;;;5080318;28;20051;-76
2022/10/04 05:19:48;;;;;;;18.65;10.57;;;10.30;99.90;;;;;;5097094;28;20113;-76
2022/10/04 05:22:19;;;;;;;20.17;10.77;;;10.30;99.90;;;;;;5096781;28;20042;-76
2022/10/04 05:24:50;;;;;;;14.27;10.63;;;10.30;99.90;;;;;;5097311;28;20497;-76
2022/10/04 05:27:34;;;;;;;22.45;11.35;;;10.20;99.90;;;;;;5097084;28;20040;-76
2022/10/04 05:30:01;;;;;;;;;;;10.20;99.90;;;;;;5097572;28;20066;-76
2022/10/04 05:32:46;;;;;;;16.17;10.23;;;10.20;99.90;;;;;;5093168;28;19922;-76
2022/10/04 05:35:18;;;;;;;19.77;10.57;;;10.10;99.90;;;;;;5117557;28;20114;-76
2022/10/04 05:38:02;;;;;;;16.83;11.20;;;10.10;99.90;;;;;;5101670;27;20044;-76
2022/10/04 05:40:44;;;;;;;19.88;10.93;;;10.10;99.90;;;;;;5096979;28;20040;-76
2022/10/04 05:43:37;;;;;;;20.00;11.10;;;10.10;99.90;;;;;;5096775;28;20158;-76
2022/10/04 05:46:14;;;;;;;18.13;11.13;;;10.10;99.90;;;;;;5097111;28;20449;-76
2022/10/04 05:48:42;;;;;;;17.10;11.32;;;10.00;99.90;;;;;;5096979;28;20051;-77
2022/10/04 05:51:30;;;;;;;20.15;11.75;;;10.00;99.90;;;;;;5096561;28;20550;-76
2022/10/04 05:53:59;;;;;;;20.52;11.98;;;10.00;99.90;;;;;;5096804;28;20123;-76
2022/10/04 05:56:40;;;;;;;20.65;12.15;;;10.00;99.90;;;;;;5096816;28;20074;-76
2022/10/04 05:59:34;;;;;;;18.33;12.40;;;10.00;99.90;;;;;;5096875;28;20044;-76
2022/10/04 06:02:12;;;;;;;20.73;11.95;;;10.00;99.90;;;;;;5096568;28;20076;-77
2022/10/04 06:04:57;;;;;;;22.60;11.75;;;10.00;99.90;;;;;;5096798;28;20048;-76
2022/10/04 06:07:33;;;;;;;23.48;12.55;;;10.00;99.90;;;;;;5096730;28;20506;-76
2022/10/04 06:10:02;;;;;;;19.65;12.23;;;10.00;99.90;;;;;;5096610;28;20040;-77
2022/10/04 06:12:56;;;;;;;21.17;12.85;;;10.00;99.90;;;;;;5096422;28;20038;-76
2022/10/04 06:15:48;;;;;;;22.23;12.38;;;10.00;99.90;;;;;;5096745;28;20044;-77
2022/10/04 06:18:58;;;;;;;22.80;12.10;;;10.00;99.90;;;;;;5097047;28;20040;-76
2022/10/04 06:21:27;;;;;;;19.92;12.40;;;10.10;99.90;;;;;;5096391;28;20040;-77
2022/10/04 06:24:13;;;;;;;21.80;12.18;;;10.10;99.90;;;;;;5096480;28;20040;-77
2022/10/04 06:26:51;;;;;;;20.42;12.43;;;10.20;99.90;;;;;;5093320;28;20047;-76
2022/10/04 06:29:31;;;;;;;19.08;12.02;;;10.20;99.90;;;;;;5093158;28;20047;-76
2022/10/04 06:32:43;;;;;;;16.60;12.25;;;10.30;99.90;;;;;;5093389;28;20040;-76
2022/10/04 06:35:38;;;;;;;19.85;13.25;;;10.30;99.90;;;;;;5093391;28;20401;-76
2022/10/04 06:38:21;;;;;;;19.55;12.48;;;10.40;99.90;;;;;;5093193;28;20040;-76
2022/10/04 06:41:24;;;;;;;19.48;13.02;;;10.40;99.90;;;;;;5093062;28;20090;-76
2022/10/04 06:44:20;;;;;;;20.15;12.48;;;10.50;99.90;;;;;;5093289;28;20439;-76
2022/10/04 06:47:16;;;;;;;18.13;12.55;;;10.60;99.90;;;;;;5076208;28;20040;-76
2022/10/04 06:49:53;;;;;;;19.08;12.38;;;10.70;99.90;;;;;;5092996;28;20040;-76
2022/10/04 06:52:27;;;;;;;25.35;13.02;;;10.70;99.90;;;;;;5092875;28;20075;-76
2022/10/04 06:55:24;;;;;;;20.42;13.48;;;10.80;99.90;;;;;;5093231;28;20425;-77
2022/10/04 06:58:16;;;;;;;19.98;12.70;;;10.90;99.90;;;;;;5092842;28;20036;-76
2022/10/04 07:01:22;;;;;;;21.90;13.55;;;10.90;99.90;;;;;;5092665;28;20044;-76
2022/10/04 07:04:39;;;;;;;19.90;12.65;;;10.90;99.90;;;;;;5075684;28;20032;-76
2022/10/04 07:07:26;;;;;;;20.33;12.45;;;11.00;99.90;;;;;;5034581;28;20171;-76
2022/10/04 07:09:54;;;;;;;20.13;12.93;;;11.00;99.90;;;;;;5088810;28;20044;-76
2022/10/04 07:12:20;;;;;;;18.92;12.98;;;11.00;99.90;;;;;;5092605;28;20603;-76
2022/10/04 07:14:50;;;;;;;20.67;13.38;;;11.00;99.90;;;;;;5092819;28;20035;-76
2022/10/04 07:17:36;;;;;;;18.77;13.18;;;11.20;99.90;;;;;;5092432;28;20043;-76
2022/10/04 07:20:03;;;;;;;18.83;13.07;;;11.30;99.90;;;;;;5092622;28;20436;-76
2022/10/04 07:22:32;;;;;;;22.40;13.27;;;11.50;99.90;;;;;;5092121;28;20047;-76
2022/10/04 07:25:26;;;;;;;20.20;12.38;;;11.50;99.90;;;;;;5092529;28;20129;-76
2022/10/04 07:30:59;;;;;;;19.83;12.80;;;11.60;99.90;;;;;;5091976;28;20044;-76
2022/10/04 07:33:28;;;;;;;19.63;13.10;;;11.60;99.90;;;;;;5092117;28;20495;-76
2022/10/04 07:36:05;;;;;;;20.92;14.02;;;11.70;99.90;;;;;;5092063;28;20118;-76
2022/10/04 07:38:33;;;;;;;16.50;12.77;;;11.70;99.90;;;;;;5091517;28;20075;-76
2022/10/04 07:41:07;;;;;;;19.27;13.43;;;11.90;99.90;;;;;;5075193;28;20048;-76
2022/10/04 07:43:58;;;;;;;17.52;12.63;;;12.20;99.90;;;;;;5091798;28;20035;-76
2022/10/04 07:46:47;;;;;;;20.13;12.38;;;12.40;99.90;;;;;;5091647;28;20062;-76
2022/10/04 07:49:22;;;;;;;17.23;12.65;;;12.70;99.90;;;;;;5091750;28;20071;-76
2022/10/04 07:52:00;;;;;;;16.08;11.70;;;12.80;99.90;;;;;;5091393;28;20570;-76
2022/10/04 07:54:32;;;;;;;21.25;12.38;;;12.80;99.90;;;;;;5075104;28;20080;-76
2022/10/04 07:57:11;;;;;;;19.73;12.27;;;12.80;99.90;;;;;;5091911;28;20040;-76
2022/10/04 08:00:09;;;;;;;16.75;11.38;;;12.80;99.90;;;;;;5091606;28;20123;-76
2022/10/04 08:02:53;;;;;;;19.65;12.13;;;12.70;99.90;;;;;;5090027;28;20097;-76
2022/10/04 08:05:20;;;;;;;21.20;12.90;;;12.70;99.90;;;;;;5091479;28;20040;-76
2022/10/04 08:08:15;;;;;;;21.20;12.73;;;12.60;99.90;;;;;;5091367;28;20051;-75
2022/10/04 08:10:49;;;;;;;15.52;11.23;;;12.60;99.90;;;;;;5091774;28;20040;-76
2022/10/04 08:13:44;;;;;;;18.98;12.05;;;12.50;99.90;;;;;;5091151;28;20039;-76
2022/10/04 08:16:34;;;;;;;18.15;12.10;;;12.50;99.90;;;;;;5091657;28;20091;-76
2022/10/04 08:19:51;;;;;;;18.27;12.15;;;12.60;99.90;;;;;;5091487;28;20040;-76
2022/10/04 08:22:30;;;;;;;15.88;11.85;;;12.70;99.90;;;;;;5077715;28;20554;-76
2022/10/04 08:25:20;;;;;;;19.17;11.85;;;12.90;99.90;;;;;;5091120;28;20083;-76
2022/10/04 08:31:17;;;;;;;17.63;10.95;;;13.30;99.90;;;;;;5090906;28;20052;-76
2022/10/04 08:34:36;;;;;;;16.70;11.05;;;13.40;99.90;;;;;;5090607;28;20081;-76
2022/10/04 08:37:08;;;;;;;17.80;10.63;;;13.50;99.90;;;;;;5033314;28;20084;-76
2022/10/04 08:39:58;;;;;;;14.50;10.18;;;13.60;99.90;;;;;;5015365;28;20064;-75
2022/10/04 08:42:32;;;;;;;18.20;10.52;;;13.70;99.90;;;;;;5070942;28;20048;-76
2022/10/04 08:45:37;;;;;;;18.27;11.27;;;13.70;99.90;;;;;;5090925;28;20600;-76
2022/10/04 08:48:37;;;;;;;15.75;10.50;;;13.80;99.90;;;;;;5062382;28;20595;-75
2022/10/04 08:51:20;;;;;;;13.98;9.63;;;13.80;99.90;;;;;;5059217;28;20170;-76
2022/10/04 08:54:20;;;;;;;17.20;10.27;;;13.90;99.90;;;;;;5090751;28;20119;-76
2022/10/04 08:57:01;;;;;;;13.68;9.38;;;13.90;99.90;;;;;;5090652;28;20569;-75
2022/10/04 08:59:45;;;;;;;15.52;8.75;;;14.00;99.90;;;;;;5090544;28;20036;-75
2022/10/04 09:02:37;;;;;;;;;;;14.00;99.90;;;;;;5090828;28;20035;-75
2022/10/04 09:05:22;;;;;;;18.35;8.15;;;14.00;99.90;;;;;;5090455;28;19916;-76
2022/10/04 09:08:07;;;;;;;15.88;8.77;;;14.10;99.90;;;;;;5090506;28;20036;-75
2022/10/04 09:10:59;;;;;;;14.38;7.93;;;14.20;99.90;;;;;;5073697;28;20075;-76
2022/10/04 09:13:50;;;;;;;14.93;7.90;;;14.20;99.90;;;;;;5090776;28;20044;-76
2022/10/04 09:16:41;;;;;;;13.68;7.72;;;14.20;99.90;;;;;;5090464;28;20072;-75
2022/10/04 09:19:21;;;;;;;16.42;7.25;;;14.30;99.90;;;;;;5090556;28;20443;-76
2022/10/04 09:21:52;;;;;;;13.10;6.43;;;14.30;99.90;;;;;;5088314;28;20036;-75
2022/10/04 09:24:55;;;;;;;12.70;6.13;;;14.40;99.90;;;;;;5090080;28;20040;-76
2022/10/04 09:27:56;;;;;;;11.45;6.65;;;14.40;99.90;;;;;;5090475;28;20036;-75
2022/10/04 09:30:33;;;;;;;11.85;6.65;;;14.50;99.90;;;;;;5073672;28;20047;-75
2022/10/04 09:33:08;;;;;;;11.93;5.95;;;14.60;99.90;;;;;;5073251;28;20051;-75
2022/10/04 09:36:02;;;;;;;9.40;6.30;;;14.60;99.90;;;;;;5090733;28;20375;-75
2022/10/04 09:38:53;;;;;;;10.85;6.47;;;14.70;99.90;;;;;;5090639;28;20397;-76
2022/10/04 09:41:43;;;;;;;11.85;6.05;;;14.70;99.90;;;;;;5090169;28;20441;-76
2022/10/04 09:44:33;;;;;;;11.45;6.03;;;14.80;99.90;;;;;;5090439;28;20135;-76
2022/10/04 09:47:11;;;;;;;10.65;5.70;;;14.90;99.90;;;;;;5073378;28;20089;-76
2022/10/04 09:50:17;;;;;;;7.57;5.10;;;14.90;99.90;;;;;;5090051;28;20455;-75
2022/10/04 09:53:14;;;;;;;8.13;5.28;;;15.00;99.90;;;;;;5089852;28;20117;-76
2022/10/04 09:56:12;;;;;;;9.77;5.53;;;15.00;99.90;;;;;;5090427;28;20044;-75
2022/10/04 09:58:45;;;;;;;9.07;5.43;;;15.10;99.90;;;;;;5090082;28;20064;-76
2022/10/04 10:01:36;;;;;;;11.90;5.97;;;15.10;99.90;;;;;;5091940;28;20048;-75
2022/10/04 10:04:27;;;;;;;10.82;7.22;;;15.10;99.90;;;;;;5093822;28;20048;-76
2022/10/04 10:07:14;;;;;;;15.05;7.57;;;15.20;99.90;;;;;;5093898;28;20097;-76
2022/10/04 10:16:13;;;;;;;15.23;7.00;;;15.40;99.90;;;;;;5093871;28;20039;-76
2022/10/04 10:19:02;;;;;;;12.45;6.45;;;15.60;99.90;;;;;;5093826;28;20124;-76
2022/10/04 10:21:45;;;;;;;11.25;6.25;;;15.60;99.90;;;;;;5093363;28;20044;-75
2022/10/04 10:24:45;;;;;;;11.15;5.90;;;15.60;99.90;;;;;;5076758;28;20044;-76
2022/10/04 10:27:48;;;;;;;7.82;5.10;;;15.70;99.90;;;;;;5093583;28;20039;-76
2022/10/04 10:30:38;;;;;;;11.65;5.10;;;15.80;99.90;;;;;;5093242;28;20044;-76
2022/10/04 10:33:25;;;;;;;12.32;5.07;;;15.90;99.90;;;;;;5093473;28;20043;-76
2022/10/04 10:36:18;;;;;;;8.75;4.35;;;15.90;99.90;;;;;;5107511;28;20035;-76
2022/10/04 10:39:20;;;;;;;9.32;4.30;;;15.90;99.90;;;;;;5093402;28;20109;-76
2022/10/04 10:42:09;;;;;;;7.88;3.97;;;15.90;99.90;;;;;;5093087;28;20040;-76
2022/10/04 10:44:55;;;;;;;9.82;4.45;;;16.00;99.90;;;;;;5076214;28;20617;-76
2022/10/04 10:47:39;;;;;;;8.25;4.13;;;16.10;99.90;;;;;;5093016;28;20032;-76
2022/10/04 10:50:14;;;;;;;;;;;16.20;99.90;;;;;;5093200;28;20135;-76
2022/10/04 10:53:10;;;;;;;7.78;4.18;;;16.20;99.90;;;;;;5092605;28;19916;-76
2022/10/04 10:55:42;;;;;;;13.25;4.53;;;16.10;99.90;;;;;;5092923;28;20036;-76
2022/10/04 10:58:45;;;;;;;9.27;4.32;;;16.10;99.90;;;;;;5092490;28;20035;-77
2022/10/04 11:01:59;;;;;;;11.80;5.63;;;16.00;99.90;;;;;;5092321;28;20119;-77
2022/10/04 11:04:56;;;;;;;12.50;4.93;;;16.20;99.90;;;;;;5093014;28;20048;-76
2022/10/04 11:07:52;;;;;;;23.50;7.68;;;16.30;99.90;;;;;;5092596;28;20051;-76
2022/10/04 11:10:50;;;;;;;8.80;4.65;;;16.50;99.90;;;;;;5092564;28;20036;-76
2022/10/04 11:13:25;;;;;;;8.90;4.25;;;16.60;99.90;;;;;;5091610;28;20078;-76
2022/10/04 11:16:13;;;;;;;8.23;4.30;;;16.70;99.90;;;;;;5092510;28;20559;-76
2022/10/04 11:19:14;;;;;;;8.57;4.13;;;16.70;99.90;;;;;;5092387;28;20047;-77
2022/10/04 11:22:24;;;;;;;9.25;4.15;;;16.90;99.90;;;;;;5090974;28;20076;-77
2022/10/04 11:25:10;;;;;;;6.82;3.95;;;17.10;99.90;;;;;;5090778;28;20040;-77
2022/10/04 11:27:54;;;;;;;8.07;4.32;;;17.10;99.90;;;;;;5092381;28;20413;-77
2022/10/04 11:30:22;;;;;;;;;;;17.20;99.90;;;;;;5092573;28;20676;-77
2022/10/04 11:32:58;;;;;;;6.95;4.07;;;17.30;99.90;;;;;;5091884;28;19961;-77
2022/10/04 11:35:53;;;;;;;10.45;3.50;;;17.40;99.90;;;;;;5092373;28;20412;-78
2022/10/04 11:38:47;;;;;;;7.15;3.80;;;17.50;99.90;;;;;;5092029;28;20582;-76
2022/10/04 11:41:49;;;;;;;7.18;4.03;;;17.60;99.90;;;;;;5091837;28;20036;-77
2022/10/04 11:44:20;;;;;;;6.47;4.28;;;17.60;99.90;;;;;;5091607;28;20079;-76
2022/10/04 11:47:00;;;;;;;5.53;3.38;;;17.70;99.90;;;;;;5092003;28;20093;-77
2022/10/04 11:49:55;;;;;;;9.07;3.60;;;17.70;99.90;;;;;;5091907;28;20040;-76
2022/10/04 11:52:50;;;;;;;6.82;3.30;;;17.60;99.90;;;;;;5091553;28;20044;-76
2022/10/04 11:55:25;;;;;;;6.97;3.30;;;17.70;99.90;;;;;;5091817;28;20505;-76
2022/10/04 11:58:01;;;;;;;7.07;3.33;;;17.90;99.90;;;;;;5074826;28;20036;-76
2022/10/04 12:00:42;;;;;;;7.68;3.60;;;18.10;99.90;;;;;;5091749;28;20067;-76
2022/10/04 12:03:43;;;;;;;6.85;3.83;;;18.10;99.90;;;;;;5091418;28;20101;-76
2022/10/04 12:06:33;;;;;;;9.05;4.03;;;18.10;99.90;;;;;;5090379;28;20036;-76
2022/10/04 12:09:08;;;;;;;8.02;4.03;;;18.30;99.90;;;;;;5090470;28;20119;-76
2022/10/04 12:14:37;;;;;;;6.70;4.40;;;18.50;99.90;;;;;;5091519;28;20455;-76
2022/10/04 12:17:26;;;;;;;6.47;4.22;;;18.70;99.90;;;;;;5091278;28;20036;-76
2022/10/04 12:20:16;;;;;;;7.82;4.00;;;18.80;99.90;;;;;;5091462;28;20515;-76
2022/10/04 12:23:09;;;;;;;6.63;3.90;;;19.00;99.90;;;;;;5088973;28;20172;-76
2022/10/04 12:25:57;;;;;;;6.93;4.25;;;19.10;99.90;;;;;;5091145;28;20032;-76
2022/10/04 12:28:37;;;;;;;6.80;4.15;;;19.10;99.90;;;;;;5091280;28;20044;-77
2022/10/04 12:31:26;;;;;;;7.25;4.20;;;19.00;99.90;;;;;;5091044;28;20151;-76
2022/10/04 12:34:13;;;;;;;11.13;4.10;;;19.00;99.90;;;;;;5072413;28;20032;-76
2022/10/04 12:36:51;;;;;;;7.22;4.18;;;19.20;99.90;;;;;;5091297;28;20489;-77
2022/10/04 12:39:26;;;;;;;10.57;4.50;;;19.30;99.90;;;;;;5090965;28;20043;-76
2022/10/04 12:42:16;;;;;;;7.18;4.10;;;19.40;99.90;;;;;;5090455;28;20044;-77
2022/10/04 12:45:12;;;;;;;7.63;3.88;;;19.50;99.90;;;;;;5090971;28;20070;-76
2022/10/04 12:47:52;;;;;;;6.38;3.50;;;19.70;99.90;;;;;;5090835;28;20036;-76
2022/10/04 12:50:27;;;;;;;7.10;4.40;;;19.80;99.90;;;;;;5090536;28;20040;-76
2022/10/04 12:53:30;;;;;;;5.57;4.22;;;19.70;99.90;;;;;;5090684;28;20039;-77
2022/10/04 12:56:24;;;;;;;7.90;4.05;;;19.50;99.90;;;;;;5090932;28;20416;-76
2022/10/04 12:59:01;;;;;;;9.60;3.72;;;19.60;99.90;;;;;;5090184;28;20485;-77
2022/10/04 13:01:48;;;;;;;6.40;3.17;;;19.50;99.90;;;;;;5090286;28;20048;-77
2022/10/04 13:04:31;;;;;;;5.43;3.83;;;19.40;99.90;;;;;;5090651;28;20067;-77
2022/10/04 13:07:28;;;;;;;4.53;3.15;;;19.20;99.90;;;;;;5090851;28;20044;-76
2022/10/04 13:10:28;;;;;;;6.75;3.45;;;19.10;99.90;;;;;;5090478;28;20052;-77
2022/10/04 13:13:22;;;;;;;7.28;3.45;;;19.00;99.90;;;;;;5090284;28;20036;-77
2022/10/04 13:16:05;;;;;;;8.38;3.90;;;19.10;99.90;;;;;;5072940;28;20078;-77
2022/10/04 13:19:24;;;;;;;6.35;3.30;;;19.20;99.90;;;;;;5089448;28;20036;-77
2022/10/04 13:22:04;;;;;;;6.50;3.28;;;19.50;99.90;;;;;;5035836;28;20124;-77
2022/10/04 13:24:57;;;;;;;7.38;3.50;;;19.60;99.90;;;;;;5090732;28;20396;-77
2022/10/04 13:27:47;;;;;;;5.93;3.40;;;19.50;99.90;;;;;;5090382;28;20509;-77
2022/10/04 13:30:22;;;;;;;5.65;3.08;;;19.50;99.90;;;;;;5073536;28;20057;-77
2022/10/04 13:33:02;;;;;;;8.77;3.40;;;19.30;99.90;;;;;;5073372;28;20032;-76
2022/10/04 13:35:28;;;;;;;6.43;3.42;;;19.10;99.90;;;;;;5091204;28;20051;-77
2022/10/04 13:38:12;;;;;;;5.90;3.17;;;19.20;99.90;;;;;;5094474;28;20036;-77
2022/10/04 13:41:01;;;;;;;;;;;19.10;99.90;;;;;;5094711;28;20040;-77
2022/10/04 13:43:45;;;;;;;5.22;3.22;;;19.00;99.90;;;;;;5094315;28;19998;-76
2022/10/04 13:46:22;;;;;;;7.45;3.33;;;18.90;99.90;;;;;;5094365;28;20062;-77
2022/10/04 13:49:06;;;;;;;5.53;3.20;;;18.70;99.90;;;;;;5094155;28;20044;-77
2022/10/04 13:51:42;;;;;;;8.30;3.33;;;18.70;99.90;;;;;;5098777;28;20046;-78
2022/10/04 13:57:38;;;;;;;6.50;3.35;;;18.90;99.90;;;;;;5114441;28;20040;-77
2022/10/04 14:00:13;;;;;;;7.15;3.50;;;18.90;99.90;;;;;;5113326;28;20043;-77
2022/10/04 14:03:11;;;;;;;5.57;3.03;;;18.90;99.90;;;;;;5114194;28;20035;-77
2022/10/04 14:05:58;;;;;;;6.85;3.20;;;18.90;99.90;;;;;;5078968;28;20675;-77
2022/10/04 14:08:27;;;;;;;5.45;3.58;;;19.00;99.90;;;;;;5094024;28;20109;-77